Terminal Aerodrome Forecast
Issued by NWS

Home | Current Version | Previous Version | Text Only | Print | Product List | Glossary On
Versions: 1 2 3 4 5 6 7 8 9 10 11 12 13 14 15 16 17 18 19 20 21 22
000
FTUS44 KMAF 302354 CCA
TAFPEQ
TAF COR
KPEQ 302354Z 3100/3124 32011KT P6SM SCT040 BKN090
     FM310900 05007KT P6SM BKN035
      TEMPO 3110/3114 3SM BR BKN015=

USA.gov is the U.S. government's official web portal to all federal, state and local government web resources and services.